sensor_id;sensor_type;location;lat;lon;timestamp;P1;durP1;ratioP1;P2;durP2;ratioP2
8177;SDS011;4130;48.740;9.132;2023-05-14T00:01:58;3.00;;;2.80;;
8177;SDS011;4130;48.740;9.132;2023-05-14T00:04:25;2.93;;;2.63;;
8177;SDS011;4130;48.740;9.132;2023-05-14T00:06:52;2.97;;;2.77;;
8177;SDS011;4130;48.740;9.132;2023-05-14T00:09:20;2.80;;;2.60;;
8177;SDS011;4130;48.740;9.132;2023-05-14T00:11:47;2.90;;;2.70;;
8177;SDS011;4130;48.740;9.132;2023-05-14T00:14:13;3.50;;;3.20;;
8177;SDS011;4130;48.740;9.132;2023-05-14T00:16:40;3.10;;;2.80;;
8177;SDS011;4130;48.740;9.132;2023-05-14T00:21:48;2.93;;;2.63;;
8177;SDS011;4130;48.740;9.132;2023-05-14T00:24:15;3.23;;;2.67;;
8177;SDS011;4130;48.740;9.132;2023-05-14T00:26:43;2.93;;;2.73;;
8177;SDS011;4130;48.740;9.132;2023-05-14T00:29:10;2.90;;;2.70;;
8177;SDS011;4130;48.740;9.132;2023-05-14T00:31:37;3.63;;;3.17;;
8177;SDS011;4130;48.740;9.132;2023-05-14T00:34:04;3.67;;;3.03;;
8177;SDS011;4130;48.740;9.132;2023-05-14T00:36:30;3.47;;;3.17;;
8177;SDS011;4130;48.740;9.132;2023-05-14T00:38:57;3.43;;;3.20;;
8177;SDS011;4130;48.740;9.132;2023-05-14T00:41:24;3.03;;;2.83;;
8177;SDS011;4130;48.740;9.132;2023-05-14T00:43:52;3.37;;;3.07;;
8177;SDS011;4130;48.740;9.132;2023-05-14T00:46:19;2.93;;;2.73;;
8177;SDS011;4130;48.740;9.132;2023-05-14T00:48:45;3.57;;;3.23;;
8177;SDS011;4130;48.740;9.132;2023-05-14T00:51:12;3.77;;;2.83;;
8177;SDS011;4130;48.740;9.132;2023-05-14T00:53:39;3.77;;;3.47;;
8177;SDS011;4130;48.740;9.132;2023-05-14T00:56:06;2.87;;;2.67;;
8177;SDS011;4130;48.740;9.132;2023-05-14T00:58:33;4.57;;;3.13;;
8177;SDS011;4130;48.740;9.132;2023-05-14T01:01:02;2.90;;;2.70;;
8177;SDS011;4130;48.740;9.132;2023-05-14T01:03:28;2.70;;;2.50;;
8177;SDS011;4130;48.740;9.132;2023-05-14T01:05:57;2.90;;;2.70;;
8177;SDS011;4130;48.740;9.132;2023-05-14T01:08:31;2.90;;;2.70;;
8177;SDS011;4130;48.740;9.132;2023-05-14T01:11:06;3.00;;;2.80;;
8177;SDS011;4130;48.740;9.132;2023-05-14T01:13:38;2.90;;;2.70;;
8177;SDS011;4130;48.740;9.132;2023-05-14T01:16:11;4.47;;;2.90;;
8177;SDS011;4130;48.740;9.132;2023-05-14T01:18:39;2.90;;;2.70;;
8177;SDS011;4130;48.740;9.132;2023-05-14T01:21:24;3.10;;;2.90;;
8177;SDS011;4130;48.740;9.132;2023-05-14T01:23:58;3.00;;;2.70;;
8177;SDS011;4130;48.740;9.132;2023-05-14T01:26:25;2.60;;;2.40;;
8177;SDS011;4130;48.740;9.132;2023-05-14T01:28:54;3.03;;;2.73;;
8177;SDS011;4130;48.740;9.132;2023-05-14T01:31:28;2.90;;;2.70;;
8177;SDS011;4130;48.740;9.132;2023-05-14T01:33:58;2.70;;;2.50;;
8177;SDS011;4130;48.740;9.132;2023-05-14T01:36:29;4.47;;;2.87;;
8177;SDS011;4130;48.740;9.132;2023-05-14T01:38:57;3.07;;;2.77;;
8177;SDS011;4130;48.740;9.132;2023-05-14T01:41:25;8.33;;;3.30;;
8177;SDS011;4130;48.740;9.132;2023-05-14T01:43:52;2.70;;;2.50;;
8177;SDS011;4130;48.740;9.132;2023-05-14T01:46:19;3.00;;;2.67;;
8177;SDS011;4130;48.740;9.132;2023-05-14T01:48:48;2.63;;;2.43;;
8177;SDS011;4130;48.740;9.132;2023-05-14T01:51:14;2.70;;;2.50;;
8177;SDS011;4130;48.740;9.132;2023-05-14T01:53:42;3.03;;;2.77;;
8177;SDS011;4130;48.740;9.132;2023-05-14T01:56:09;2.93;;;2.67;;
8177;SDS011;4130;48.740;9.132;2023-05-14T01:58:36;2.70;;;2.50;;
8177;SDS011;4130;48.740;9.132;2023-05-14T02:01:03;3.00;;;2.70;;
8177;SDS011;4130;48.740;9.132;2023-05-14T02:03:29;2.97;;;2.77;;
8177;SDS011;4130;48.740;9.132;2023-05-14T02:05:56;3.13;;;2.80;;
8177;SDS011;4130;48.740;9.132;2023-05-14T02:08:23;2.93;;;2.70;;
8177;SDS011;4130;48.740;9.132;2023-05-14T02:10:51;2.50;;;2.30;;
8177;SDS011;4130;48.740;9.132;2023-05-14T02:13:18;2.77;;;2.50;;
8177;SDS011;4130;48.740;9.132;2023-05-14T02:15:45;2.60;;;2.40;;
8177;SDS011;4130;48.740;9.132;2023-05-14T02:18:11;3.20;;;2.50;;
8177;SDS011;4130;48.740;9.132;2023-05-14T02:20:38;3.10;;;2.80;;
8177;SDS011;4130;48.740;9.132;2023-05-14T02:23:05;2.60;;;2.40;;
8177;SDS011;4130;48.740;9.132;2023-05-14T02:25:32;3.53;;;2.60;;
8177;SDS011;4130;48.740;9.132;2023-05-14T02:28:00;3.10;;;2.80;;
8177;SDS011;4130;48.740;9.132;2023-05-14T02:30:26;2.87;;;2.67;;
8177;SDS011;4130;48.740;9.132;2023-05-14T02:32:54;3.30;;;2.70;;
8177;SDS011;4130;48.740;9.132;2023-05-14T02:35:20;2.30;;;2.10;;
8177;SDS011;4130;48.740;9.132;2023-05-14T02:37:47;2.77;;;2.57;;
8177;SDS011;4130;48.740;9.132;2023-05-14T02:40:14;2.53;;;2.33;;
8177;SDS011;4130;48.740;9.132;2023-05-14T02:42:41;2.80;;;2.60;;
8177;SDS011;4130;48.740;9.132;2023-05-14T02:45:09;2.97;;;2.70;;
8177;SDS011;4130;48.740;9.132;2023-05-14T02:47:36;2.70;;;2.50;;
8177;SDS011;4130;48.740;9.132;2023-05-14T02:50:03;2.87;;;2.67;;
8177;SDS011;4130;48.740;9.132;2023-05-14T02:52:31;2.90;;;2.70;;
8177;SDS011;4130;48.740;9.132;2023-05-14T02:54:58;2.97;;;2.77;;
8177;SDS011;4130;48.740;9.132;2023-05-14T02:57:25;2.93;;;2.73;;
8177;SDS011;4130;48.740;9.132;2023-05-14T02:59:51;2.90;;;2.70;;
8177;SDS011;4130;48.740;9.132;2023-05-14T03:02:19;3.13;;;2.93;;
8177;SDS011;4130;48.740;9.132;2023-05-14T03:04:46;2.80;;;2.60;;
8177;SDS011;4130;48.740;9.132;2023-05-14T03:07:13;2.93;;;2.73;;
8177;SDS011;4130;48.740;9.132;2023-05-14T03:09:40;3.00;;;2.80;;
8177;SDS011;4130;48.740;9.132;2023-05-14T03:12:07;2.70;;;2.50;;
8177;SDS011;4130;48.740;9.132;2023-05-14T03:14:33;2.87;;;2.57;;
8177;SDS011;4130;48.740;9.132;2023-05-14T03:17:02;2.80;;;2.60;;
8177;SDS011;4130;48.740;9.132;2023-05-14T03:19:31;3.00;;;2.80;;
8177;SDS011;4130;48.740;9.132;2023-05-14T03:21:58;2.87;;;2.67;;
8177;SDS011;4130;48.740;9.132;2023-05-14T03:24:25;2.60;;;2.40;;
8177;SDS011;4130;48.740;9.132;2023-05-14T03:26:52;2.83;;;2.63;;
8177;SDS011;4130;48.740;9.132;2023-05-14T03:29:19;2.70;;;2.50;;
8177;SDS011;4130;48.740;9.132;2023-05-14T03:31:45;2.80;;;2.60;;
8177;SDS011;4130;48.740;9.132;2023-05-14T03:34:12;2.70;;;2.50;;
8177;SDS011;4130;48.740;9.132;2023-05-14T03:36:40;2.97;;;2.77;;
8177;SDS011;4130;48.740;9.132;2023-05-14T03:39:07;3.17;;;2.90;;
8177;SDS011;4130;48.740;9.132;2023-05-14T03:41:35;3.37;;;3.10;;
8177;SDS011;4130;48.740;9.132;2023-05-14T03:44:03;3.20;;;2.90;;
8177;SDS011;4130;48.740;9.132;2023-05-14T03:46:30;3.00;;;2.80;;
8177;SDS011;4130;48.740;9.132;2023-05-14T03:48:57;3.00;;;2.80;;
8177;SDS011;4130;48.740;9.132;2023-05-14T03:51:23;2.90;;;2.70;;
8177;SDS011;4130;48.740;9.132;2023-05-14T03:53:54;3.13;;;2.93;;
8177;SDS011;4130;48.740;9.132;2023-05-14T03:56:22;2.77;;;2.57;;
8177;SDS011;4130;48.740;9.132;2023-05-14T03:58:49;3.07;;;2.87;;
8177;SDS011;4130;48.740;9.132;2023-05-14T04:01:16;3.17;;;2.93;;
8177;SDS011;4130;48.740;9.132;2023-05-14T04:03:43;3.23;;;3.00;;
8177;SDS011;4130;48.740;9.132;2023-05-14T04:06:10;3.17;;;2.97;;
8177;SDS011;4130;48.740;9.132;2023-05-14T04:08:37;3.10;;;2.80;;
8177;SDS011;4130;48.740;9.132;2023-05-14T04:11:07;3.30;;;3.00;;
8177;SDS011;4130;48.740;9.132;2023-05-14T04:13:34;3.20;;;2.90;;
8177;SDS011;4130;48.740;9.132;2023-05-14T04:16:01;3.27;;;2.70;;
8177;SDS011;4130;48.740;9.132;2023-05-14T04:18:28;3.67;;;3.37;;
8177;SDS011;4130;48.740;9.132;2023-05-14T04:20:59;3.77;;;3.10;;
8177;SDS011;4130;48.740;9.132;2023-05-14T04:23:26;3.53;;;3.23;;
8177;SDS011;4130;48.740;9.132;2023-05-14T04:25:55;3.23;;;2.93;;
8177;SDS011;4130;48.740;9.132;2023-05-14T04:28:24;3.20;;;2.90;;
8177;SDS011;4130;48.740;9.132;2023-05-14T04:30:51;3.27;;;3.07;;
8177;SDS011;4130;48.740;9.132;2023-05-14T04:33:18;3.70;;;3.40;;
8177;SDS011;4130;48.740;9.132;2023-05-14T04:35:46;4.77;;;3.63;;
8177;SDS011;4130;48.740;9.132;2023-05-14T04:38:13;3.53;;;3.27;;
8177;SDS011;4130;48.740;9.132;2023-05-14T04:40:41;3.87;;;3.47;;
8177;SDS011;4130;48.740;9.132;2023-05-14T04:43:08;3.47;;;3.00;;
8177;SDS011;4130;48.740;9.132;2023-05-14T04:45:36;3.73;;;3.43;;
8177;SDS011;4130;48.740;9.132;2023-05-14T04:48:04;4.77;;;3.37;;
8177;SDS011;4130;48.740;9.132;2023-05-14T04:50:32;3.70;;;3.40;;
8177;SDS011;4130;48.740;9.132;2023-05-14T04:52:59;4.03;;;3.67;;
8177;SDS011;4130;48.740;9.132;2023-05-14T04:55:27;4.03;;;3.63;;
8177;SDS011;4130;48.740;9.132;2023-05-14T04:57:54;3.60;;;3.30;;
8177;SDS011;4130;48.740;9.132;2023-05-14T05:00:21;3.67;;;3.37;;
8177;SDS011;4130;48.740;9.132;2023-05-14T05:02:50;3.67;;;3.37;;
8177;SDS011;4130;48.740;9.132;2023-05-14T05:05:17;3.87;;;3.47;;
8177;SDS011;4130;48.740;9.132;2023-05-14T05:07:47;4.47;;;4.07;;
8177;SDS011;4130;48.740;9.132;2023-05-14T05:10:13;3.67;;;3.37;;
8177;SDS011;4130;48.740;9.132;2023-05-14T05:12:43;3.87;;;3.53;;
8177;SDS011;4130;48.740;9.132;2023-05-14T05:15:10;4.63;;;3.73;;
8177;SDS011;4130;48.740;9.132;2023-05-14T05:17:38;3.27;;;2.97;;
8177;SDS011;4130;48.740;9.132;2023-05-14T05:20:08;4.00;;;3.53;;
8177;SDS011;4130;48.740;9.132;2023-05-14T05:22:35;4.07;;;3.60;;
8177;SDS011;4130;48.740;9.132;2023-05-14T05:25:02;4.53;;;3.80;;
8177;SDS011;4130;48.740;9.132;2023-05-14T05:27:30;4.50;;;3.57;;
8177;SDS011;4130;48.740;9.132;2023-05-14T05:29:57;3.70;;;3.40;;
8177;SDS011;4130;48.740;9.132;2023-05-14T05:32:24;4.00;;;3.60;;
8177;SDS011;4130;48.740;9.132;2023-05-14T05:34:50;3.70;;;3.40;;
8177;SDS011;4130;48.740;9.132;2023-05-14T05:37:19;3.30;;;3.00;;
8177;SDS011;4130;48.740;9.132;2023-05-14T05:39:45;4.73;;;3.40;;
8177;SDS011;4130;48.740;9.132;2023-05-14T05:42:12;4.03;;;3.23;;
8177;SDS011;4130;48.740;9.132;2023-05-14T05:44:39;4.13;;;3.73;;
8177;SDS011;4130;48.740;9.132;2023-05-14T05:47:06;4.13;;;3.73;;
8177;SDS011;4130;48.740;9.132;2023-05-14T05:49:34;3.50;;;3.17;;
8177;SDS011;4130;48.740;9.132;2023-05-14T05:52:01;4.10;;;3.67;;
8177;SDS011;4130;48.740;9.132;2023-05-14T05:54:30;3.20;;;3.00;;
8177;SDS011;4130;48.740;9.132;2023-05-14T05:56:57;5.07;;;3.83;;
8177;SDS011;4130;48.740;9.132;2023-05-14T05:59:24;4.13;;;3.73;;
8177;SDS011;4130;48.740;9.132;2023-05-14T06:01:50;3.80;;;3.47;;
8177;SDS011;4130;48.740;9.132;2023-05-14T06:04:17;4.13;;;3.60;;
8177;SDS011;4130;48.740;9.132;2023-05-14T06:06:44;4.37;;;3.83;;
8177;SDS011;4130;48.740;9.132;2023-05-14T06:09:11;3.87;;;3.57;;
8177;SDS011;4130;48.740;9.132;2023-05-14T06:11:40;4.47;;;3.77;;
8177;SDS011;4130;48.740;9.132;2023-05-14T06:14:07;4.17;;;3.77;;
8177;SDS011;4130;48.740;9.132;2023-05-14T06:16:34;5.97;;;4.00;;
8177;SDS011;4130;48.740;9.132;2023-05-14T06:19:00;4.40;;;4.00;;
8177;SDS011;4130;48.740;9.132;2023-05-14T06:21:27;4.00;;;3.60;;
8177;SDS011;4130;48.740;9.132;2023-05-14T06:23:54;4.03;;;3.63;;
8177;SDS011;4130;48.740;9.132;2023-05-14T06:26:21;4.47;;;4.00;;
8177;SDS011;4130;48.740;9.132;2023-05-14T06:28:49;4.20;;;3.80;;
8177;SDS011;4130;48.740;9.132;2023-05-14T06:31:16;4.33;;;3.80;;
8177;SDS011;4130;48.740;9.132;2023-05-14T06:33:44;3.63;;;3.30;;
8177;SDS011;4130;48.740;9.132;2023-05-14T06:36:12;4.10;;;3.70;;
8177;SDS011;4130;48.740;9.132;2023-05-14T06:38:39;4.03;;;3.63;;
8177;SDS011;4130;48.740;9.132;2023-05-14T06:41:05;4.13;;;3.80;;
8177;SDS011;4130;48.740;9.132;2023-05-14T06:43:32;5.03;;;3.63;;
8177;SDS011;4130;48.740;9.132;2023-05-14T06:46:00;4.60;;;4.20;;
8177;SDS011;4130;48.740;9.132;2023-05-14T06:48:27;4.10;;;3.70;;
8177;SDS011;4130;48.740;9.132;2023-05-14T06:50:55;3.93;;;3.57;;
8177;SDS011;4130;48.740;9.132;2023-05-14T06:53:22;6.27;;;4.57;;
8177;SDS011;4130;48.740;9.132;2023-05-14T06:55:49;4.57;;;3.83;;
8177;SDS011;4130;48.740;9.132;2023-05-14T06:58:16;4.27;;;3.87;;
8177;SDS011;4130;48.740;9.132;2023-05-14T07:00:43;4.93;;;4.17;;
8177;SDS011;4130;48.740;9.132;2023-05-14T07:03:12;4.27;;;3.70;;
8177;SDS011;4130;48.740;9.132;2023-05-14T07:05:40;6.23;;;4.33;;
8177;SDS011;4130;48.740;9.132;2023-05-14T07:08:08;4.37;;;3.97;;
8177;SDS011;4130;48.740;9.132;2023-05-14T07:10:35;4.40;;;4.00;;
8177;SDS011;4130;48.740;9.132;2023-05-14T07:13:04;5.53;;;4.40;;
8177;SDS011;4130;48.740;9.132;2023-05-14T07:15:31;4.75;;;4.25;;
8177;SDS011;4130;48.740;9.132;2023-05-14T07:17:59;5.33;;;4.23;;
8177;SDS011;4130;48.740;9.132;2023-05-14T07:20:27;4.50;;;3.93;;
8177;SDS011;4130;48.740;9.132;2023-05-14T07:22:55;4.82;;;3.78;;
8177;SDS011;4130;48.740;9.132;2023-05-14T07:25:22;4.73;;;4.20;;
8177;SDS011;4130;48.740;9.132;2023-05-14T07:27:49;5.07;;;4.43;;
8177;SDS011;4130;48.740;9.132;2023-05-14T07:30:16;4.50;;;3.80;;
8177;SDS011;4130;48.740;9.132;2023-05-14T07:32:43;3.90;;;3.53;;
8177;SDS011;4130;48.740;9.132;2023-05-14T07:35:10;3.90;;;3.50;;
8177;SDS011;4130;48.740;9.132;2023-05-14T07:37:39;4.03;;;3.63;;
8177;SDS011;4130;48.740;9.132;2023-05-14T07:40:07;4.50;;;4.10;;
8177;SDS011;4130;48.740;9.132;2023-05-14T07:42:37;5.05;;;4.32;;
8177;SDS011;4130;48.740;9.132;2023-05-14T07:45:06;5.05;;;3.95;;
8177;SDS011;4130;48.740;9.132;2023-05-14T07:47:33;4.38;;;3.97;;
8177;SDS011;4130;48.740;9.132;2023-05-14T07:50:01;4.03;;;3.63;;
8177;SDS011;4130;48.740;9.132;2023-05-14T07:52:30;5.10;;;4.10;;
8177;SDS011;4130;48.740;9.132;2023-05-14T07:54:58;4.70;;;4.07;;
8177;SDS011;4130;48.740;9.132;2023-05-14T07:57:25;5.65;;;4.40;;
8177;SDS011;4130;48.740;9.132;2023-05-14T07:59:52;4.00;;;3.70;;
8177;SDS011;4130;48.740;9.132;2023-05-14T08:02:19;5.38;;;3.97;;
8177;SDS011;4130;48.740;9.132;2023-05-14T08:04:47;3.90;;;3.60;;
8177;SDS011;4130;48.740;9.132;2023-05-14T08:07:14;4.43;;;3.67;;
8177;SDS011;4130;48.740;9.132;2023-05-14T08:09:41;4.20;;;3.80;;
8177;SDS011;4130;48.740;9.132;2023-05-14T08:12:09;3.97;;;3.53;;
8177;SDS011;4130;48.740;9.132;2023-05-14T08:14:37;4.78;;;3.80;;
8177;SDS011;4130;48.740;9.132;2023-05-14T08:17:05;4.28;;;3.88;;
8177;SDS011;4130;48.740;9.132;2023-05-14T08:19:32;4.65;;;3.78;;
8177;SDS011;4130;48.740;9.132;2023-05-14T08:21:59;4.38;;;3.97;;
8177;SDS011;4130;48.740;9.132;2023-05-14T08:24:26;3.88;;;3.47;;
8177;SDS011;4130;48.740;9.132;2023-05-14T08:26:54;6.13;;;3.80;;
8177;SDS011;4130;48.740;9.132;2023-05-14T08:29:22;4.68;;;4.15;;
8177;SDS011;4130;48.740;9.132;2023-05-14T08:31:49;5.65;;;3.60;;
8177;SDS011;4130;48.740;9.132;2023-05-14T08:34:17;4.38;;;3.60;;
8177;SDS011;4130;48.740;9.132;2023-05-14T08:36:44;4.43;;;3.83;;
8177;SDS011;4130;48.740;9.132;2023-05-14T08:39:11;4.85;;;3.97;;
8177;SDS011;4130;48.740;9.132;2023-05-14T08:41:39;4.35;;;3.95;;
8177;SDS011;4130;48.740;9.132;2023-05-14T08:44:07;4.22;;;3.78;;
8177;SDS011;4130;48.740;9.132;2023-05-14T08:46:39;4.53;;;3.72;;
8177;SDS011;4130;48.740;9.132;2023-05-14T08:49:09;3.30;;;3.00;;
8177;SDS011;4130;48.740;9.132;2023-05-14T08:51:43;4.97;;;3.38;;
8177;SDS011;4130;48.740;9.132;2023-05-14T08:54:11;5.57;;;3.45;;
8177;SDS011;4130;48.740;9.132;2023-05-14T08:56:41;3.78;;;3.42;;
8177;SDS011;4130;48.740;9.132;2023-05-14T08:59:10;4.05;;;3.60;;
8177;SDS011;4130;48.740;9.132;2023-05-14T09:01:40;3.90;;;3.25;;
8177;SDS011;4130;48.740;9.132;2023-05-14T09:04:11;3.83;;;3.47;;
8177;SDS011;4130;48.740;9.132;2023-05-14T09:06:41;3.95;;;3.55;;
8177;SDS011;4130;48.740;9.132;2023-05-14T09:09:09;3.70;;;3.40;;
8177;SDS011;4130;48.740;9.132;2023-05-14T09:11:40;4.28;;;3.75;;
8177;SDS011;4130;48.740;9.132;2023-05-14T09:14:07;4.15;;;3.47;;
8177;SDS011;4130;48.740;9.132;2023-05-14T09:16:35;3.90;;;3.40;;
8177;SDS011;4130;48.740;9.132;2023-05-14T09:19:03;3.50;;;3.20;;
8177;SDS011;4130;48.740;9.132;2023-05-14T09:21:31;4.68;;;3.75;;
8177;SDS011;4130;48.740;9.132;2023-05-14T09:23:58;4.18;;;3.78;;
8177;SDS011;4130;48.740;9.132;2023-05-14T09:26:26;4.07;;;3.60;;
8177;SDS011;4130;48.740;9.132;2023-05-14T09:28:56;3.95;;;3.58;;
8177;SDS011;4130;48.740;9.132;2023-05-14T09:31:26;4.28;;;3.88;;
8177;SDS011;4130;48.740;9.132;2023-05-14T09:33:52;3.97;;;3.60;;
8177;SDS011;4130;48.740;9.132;2023-05-14T09:36:21;3.40;;;3.10;;
8177;SDS011;4130;48.740;9.132;2023-05-14T09:38:49;3.30;;;3.00;;
8177;SDS011;4130;48.740;9.132;2023-05-14T09:41:16;3.88;;;3.10;;
8177;SDS011;4130;48.740;9.132;2023-05-14T09:43:44;3.58;;;3.28;;
8177;SDS011;4130;48.740;9.132;2023-05-14T09:46:11;4.25;;;3.55;;
8177;SDS011;4130;48.740;9.132;2023-05-14T09:48:38;3.55;;;3.25;;
8177;SDS011;4130;48.740;9.132;2023-05-14T09:51:05;3.33;;;3.00;;
8177;SDS011;4130;48.740;9.132;2023-05-14T09:53:33;3.42;;;3.13;;
8177;SDS011;4130;48.740;9.132;2023-05-14T09:56:00;5.43;;;3.13;;
8177;SDS011;4130;48.740;9.132;2023-05-14T09:58:27;3.65;;;3.35;;
8177;SDS011;4130;48.740;9.132;2023-05-14T10:00:54;4.13;;;3.70;;
8177;SDS011;4130;48.740;9.132;2023-05-14T10:03:24;3.35;;;3.05;;
8177;SDS011;4130;48.740;9.132;2023-05-14T10:05:52;3.38;;;3.10;;
8177;SDS011;4130;48.740;9.132;2023-05-14T10:08:23;3.78;;;3.40;;
8177;SDS011;4130;48.740;9.132;2023-05-14T10:10:53;3.45;;;3.15;;
8177;SDS011;4130;48.740;9.132;2023-05-14T10:13:21;3.10;;;2.80;;
8177;SDS011;4130;48.740;9.132;2023-05-14T10:15:55;3.50;;;2.90;;
8177;SDS011;4130;48.740;9.132;2023-05-14T10:18:26;2.80;;;2.60;;
8177;SDS011;4130;48.740;9.132;2023-05-14T10:21:03;3.60;;;3.22;;
8177;SDS011;4130;48.740;9.132;2023-05-14T10:23:31;3.50;;;3.20;;
8177;SDS011;4130;48.740;9.132;2023-05-14T10:26:03;3.80;;;3.40;;
8177;SDS011;4130;48.740;9.132;2023-05-14T10:28:30;4.68;;;3.85;;
8177;SDS011;4130;48.740;9.132;2023-05-14T10:30:58;4.18;;;3.63;;
8177;SDS011;4130;48.740;9.132;2023-05-14T10:33:25;4.13;;;3.70;;
8177;SDS011;4130;48.740;9.132;2023-05-14T10:35:56;3.78;;;3.47;;
8177;SDS011;4130;48.740;9.132;2023-05-14T10:38:26;3.25;;;2.95;;
8177;SDS011;4130;48.740;9.132;2023-05-14T10:40:55;3.15;;;2.78;;
8177;SDS011;4130;48.740;9.132;2023-05-14T10:43:27;3.40;;;3.10;;
8177;SDS011;4130;48.740;9.132;2023-05-14T10:45:55;3.15;;;2.85;;
8177;SDS011;4130;48.740;9.132;2023-05-14T10:48:27;3.08;;;2.88;;
8177;SDS011;4130;48.740;9.132;2023-05-14T10:50:55;3.10;;;2.80;;
8177;SDS011;4130;48.740;9.132;2023-05-14T10:53:30;2.78;;;2.58;;
8177;SDS011;4130;48.740;9.132;2023-05-14T10:56:01;2.92;;;2.72;;
8177;SDS011;4130;48.740;9.132;2023-05-14T10:58:31;2.72;;;2.53;;
8177;SDS011;4130;48.740;9.132;2023-05-14T11:01:02;2.60;;;2.40;;
8177;SDS011;4130;48.740;9.132;2023-05-14T11:03:30;3.17;;;2.88;;
8177;SDS011;4130;48.740;9.132;2023-05-14T11:05:59;3.40;;;2.97;;
8177;SDS011;4130;48.740;9.132;2023-05-14T11:08:32;3.40;;;2.85;;
8177;SDS011;4130;48.740;9.132;2023-05-14T11:10:59;3.15;;;2.85;;
8177;SDS011;4130;48.740;9.132;2023-05-14T11:13:27;3.35;;;2.58;;
8177;SDS011;4130;48.740;9.132;2023-05-14T11:15:56;4.55;;;3.00;;
8177;SDS011;4130;48.740;9.132;2023-05-14T11:18:26;3.38;;;2.97;;
8177;SDS011;4130;48.740;9.132;2023-05-14T11:20:53;3.35;;;3.05;;
8177;SDS011;4130;48.740;9.132;2023-05-14T11:23:23;3.35;;;3.05;;
8177;SDS011;4130;48.740;9.132;2023-05-14T11:25:50;3.33;;;3.03;;
8177;SDS011;4130;48.740;9.132;2023-05-14T11:28:18;2.88;;;2.60;;
8177;SDS011;4130;48.740;9.132;2023-05-14T11:30:45;2.80;;;2.60;;
8177;SDS011;4130;48.740;9.132;2023-05-14T11:33:14;3.28;;;2.65;;
8177;SDS011;4130;48.740;9.132;2023-05-14T11:35:41;3.75;;;3.05;;
8177;SDS011;4130;48.740;9.132;2023-05-14T11:38:13;3.58;;;3.28;;
8177;SDS011;4130;48.740;9.132;2023-05-14T11:40:42;2.97;;;2.78;;
8177;SDS011;4130;48.740;9.132;2023-05-14T11:43:09;3.33;;;3.03;;
8177;SDS011;4130;48.740;9.132;2023-05-14T11:45:36;3.22;;;2.92;;
8177;SDS011;4130;48.740;9.132;2023-05-14T11:48:10;3.05;;;2.83;;
8177;SDS011;4130;48.740;9.132;2023-05-14T11:50:42;3.53;;;3.13;;
8177;SDS011;4130;48.740;9.132;2023-05-14T11:53:15;3.35;;;3.00;;
8177;SDS011;4130;48.740;9.132;2023-05-14T11:55:47;3.00;;;2.70;;
8177;SDS011;4130;48.740;9.132;2023-05-14T11:58:16;3.30;;;2.72;;
8177;SDS011;4130;48.740;9.132;2023-05-14T12:00:44;3.08;;;2.78;;
8177;SDS011;4130;48.740;9.132;2023-05-14T12:03:15;2.70;;;2.50;;
8177;SDS011;4130;48.740;9.132;2023-05-14T12:06:00;2.40;;;2.20;;
8177;SDS011;4130;48.740;9.132;2023-05-14T12:08:32;2.60;;;2.40;;
8177;SDS011;4130;48.740;9.132;2023-05-14T12:11:00;3.35;;;3.05;;
8177;SDS011;4130;48.740;9.132;2023-05-14T12:13:27;2.67;;;2.42;;
8177;SDS011;4130;48.740;9.132;2023-05-14T12:15:56;2.85;;;2.60;;
8177;SDS011;4130;48.740;9.132;2023-05-14T12:18:26;3.30;;;2.58;;
8177;SDS011;4130;48.740;9.132;2023-05-14T12:20:55;2.88;;;2.67;;
8177;SDS011;4130;48.740;9.132;2023-05-14T12:23:32;3.80;;;3.20;;
8177;SDS011;4130;48.740;9.132;2023-05-14T12:26:02;3.10;;;2.80;;
8177;SDS011;4130;48.740;9.132;2023-05-14T12:28:31;5.63;;;3.30;;
8177;SDS011;4130;48.740;9.132;2023-05-14T12:31:00;3.17;;;2.88;;
8177;SDS011;4130;48.740;9.132;2023-05-14T12:33:27;3.28;;;2.83;;
8177;SDS011;4130;48.740;9.132;2023-05-14T12:35:55;2.80;;;2.60;;
8177;SDS011;4130;48.740;9.132;2023-05-14T12:38:27;3.15;;;2.85;;
8177;SDS011;4130;48.740;9.132;2023-05-14T12:40:54;2.88;;;2.53;;
8177;SDS011;4130;48.740;9.132;2023-05-14T12:43:21;2.90;;;2.60;;
8177;SDS011;4130;48.740;9.132;2023-05-14T12:45:48;3.10;;;2.63;;
8177;SDS011;4130;48.740;9.132;2023-05-14T12:48:16;2.45;;;2.20;;
8177;SDS011;4130;48.740;9.132;2023-05-14T12:50:43;2.67;;;2.42;;
8177;SDS011;4130;48.740;9.132;2023-05-14T12:53:12;2.70;;;2.50;;
8177;SDS011;4130;48.740;9.132;2023-05-14T12:55:42;3.28;;;2.65;;
8177;SDS011;4130;48.740;9.132;2023-05-14T12:58:10;2.92;;;2.47;;
8177;SDS011;4130;48.740;9.132;2023-05-14T13:00:37;2.55;;;2.35;;
8177;SDS011;4130;48.740;9.132;2023-05-14T13:03:04;2.30;;;2.10;;
8177;SDS011;4130;48.740;9.132;2023-05-14T13:05:31;2.30;;;2.10;;
8177;SDS011;4130;48.740;9.132;2023-05-14T13:07:59;2.50;;;2.30;;
8177;SDS011;4130;48.740;9.132;2023-05-14T13:10:27;4.03;;;2.15;;
8177;SDS011;4130;48.740;9.132;2023-05-14T13:12:57;2.47;;;2.28;;
8177;SDS011;4130;48.740;9.132;2023-05-14T13:15:26;1.92;;;1.73;;
8177;SDS011;4130;48.740;9.132;2023-05-14T13:17:53;1.83;;;1.73;;
8177;SDS011;4130;48.740;9.132;2023-05-14T13:20:19;3.15;;;1.80;;
8177;SDS011;4130;48.740;9.132;2023-05-14T13:22:47;3.20;;;2.15;;
8177;SDS011;4130;48.740;9.132;2023-05-14T13:25:14;3.72;;;2.20;;
8177;SDS011;4130;48.740;9.132;2023-05-14T13:27:41;1.92;;;1.83;;
8177;SDS011;4130;48.740;9.132;2023-05-14T13:30:11;1.88;;;1.77;;
8177;SDS011;4130;48.740;9.132;2023-05-14T13:32:38;2.15;;;2.05;;
8177;SDS011;4130;48.740;9.132;2023-05-14T13:35:08;1.85;;;1.73;;
8177;SDS011;4130;48.740;9.132;2023-05-14T13:37:35;2.08;;;1.90;;
8177;SDS011;4130;48.740;9.132;2023-05-14T13:40:02;2.05;;;1.85;;
8177;SDS011;4130;48.740;9.132;2023-05-14T13:42:30;2.33;;;2.13;;
8177;SDS011;4130;48.740;9.132;2023-05-14T13:44:57;2.13;;;2.00;;
8177;SDS011;4130;48.740;9.132;2023-05-14T13:47:25;2.25;;;2.08;;
8177;SDS011;4130;48.740;9.132;2023-05-14T13:49:52;2.58;;;2.38;;
8177;SDS011;4130;48.740;9.132;2023-05-14T13:52:20;2.33;;;2.13;;
8177;SDS011;4130;48.740;9.132;2023-05-14T13:54:47;2.50;;;2.30;;
8177;SDS011;4130;48.740;9.132;2023-05-14T13:57:14;2.35;;;2.15;;
8177;SDS011;4130;48.740;9.132;2023-05-14T13:59:41;2.45;;;2.25;;
8177;SDS011;4130;48.740;9.132;2023-05-14T14:02:08;3.08;;;2.40;;
8177;SDS011;4130;48.740;9.132;2023-05-14T14:04:36;2.50;;;2.30;;
8177;SDS011;4130;48.740;9.132;2023-05-14T14:07:04;3.05;;;2.15;;
8177;SDS011;4130;48.740;9.132;2023-05-14T14:09:30;2.83;;;2.30;;
8177;SDS011;4130;48.740;9.132;2023-05-14T14:11:59;2.55;;;2.30;;
8177;SDS011;4130;48.740;9.132;2023-05-14T14:14:27;2.13;;;1.92;;
8177;SDS011;4130;48.740;9.132;2023-05-14T14:16:54;2.20;;;2.00;;
8177;SDS011;4130;48.740;9.132;2023-05-14T14:19:21;1.90;;;1.80;;
8177;SDS011;4130;48.740;9.132;2023-05-14T14:21:49;2.55;;;2.20;;
8177;SDS011;4130;48.740;9.132;2023-05-14T14:24:16;2.65;;;2.22;;
8177;SDS011;4130;48.740;9.132;2023-05-14T14:26:42;2.40;;;2.20;;
8177;SDS011;4130;48.740;9.132;2023-05-14T14:29:09;2.42;;;2.22;;
8177;SDS011;4130;48.740;9.132;2023-05-14T14:31:36;2.03;;;1.88;;
8177;SDS011;4130;48.740;9.132;2023-05-14T14:34:03;2.28;;;2.17;;
8177;SDS011;4130;48.740;9.132;2023-05-14T14:36:30;2.00;;;1.88;;
8177;SDS011;4130;48.740;9.132;2023-05-14T14:38:58;2.00;;;1.90;;
8177;SDS011;4130;48.740;9.132;2023-05-14T14:41:27;2.03;;;1.90;;
8177;SDS011;4130;48.740;9.132;2023-05-14T14:43:54;2.00;;;1.90;;
8177;SDS011;4130;48.740;9.132;2023-05-14T14:46:21;1.83;;;1.73;;
8177;SDS011;4130;48.740;9.132;2023-05-14T14:48:48;2.10;;;1.90;;
8177;SDS011;4130;48.740;9.132;2023-05-14T14:51:15;1.98;;;1.70;;
8177;SDS011;4130;48.740;9.132;2023-05-14T14:53:42;2.03;;;1.92;;
8177;SDS011;4130;48.740;9.132;2023-05-14T14:56:10;2.60;;;2.20;;
8177;SDS011;4130;48.740;9.132;2023-05-14T14:58:36;2.17;;;1.98;;
8177;SDS011;4130;48.740;9.132;2023-05-14T15:01:04;2.28;;;2.08;;
8177;SDS011;4130;48.740;9.132;2023-05-14T15:03:31;1.98;;;1.88;;
8177;SDS011;4130;48.740;9.132;2023-05-14T15:05:58;1.90;;;1.80;;
8177;SDS011;4130;48.740;9.132;2023-05-14T15:08:25;1.70;;;1.60;;
8177;SDS011;4130;48.740;9.132;2023-05-14T15:10:53;1.77;;;1.67;;
8177;SDS011;4130;48.740;9.132;2023-05-14T15:13:21;1.90;;;1.70;;
8177;SDS011;4130;48.740;9.132;2023-05-14T15:15:48;1.65;;;1.55;;
8177;SDS011;4130;48.740;9.132;2023-05-14T15:18:16;1.70;;;1.60;;
8177;SDS011;4130;48.740;9.132;2023-05-14T15:20:43;2.00;;;1.90;;
8177;SDS011;4130;48.740;9.132;2023-05-14T15:23:11;2.05;;;1.85;;